• Join FlightAware (Why Join?)
  • Login
  • US Flag 
04:58PM EDT


 

Airport Tracker/Info


-or-


 

Live Flight TrackerFlight Track Log ✈ CTL13 ✈ 05-Apr-2013 ✈ KEYE - KMDW

Flight Track Log - Related Links

Times and Time Zones

All times are in EDT time to prevent confusion due to time zone crossing. See the CTL13 flight status page for this flight to view local times or setup timezone preferences in your user account.

Time Position Orientation Groundspeed Altitude Reporting Facility
EDT Latitude Longitude Course Direction KTS MPH feet Rate Location/Type
08:50PM 39.8788 -86.3452 321° Northwest  Level FlightAware Approximate
08:54PM 40.2089 -86.4903 320° Northwest 159 183 4,000  Level Indianapolis Center
08:55PM 40.2181 -86.5094 302° West 162 186 4,000  Level Chicago Center
08:55PM 40.2425 -86.5469 311° West 163 188 4,000  Level Chicago Center
08:57PM 40.0940 -86.5772 323° Northwest  Level FlightAware Approximate
08:57PM 40.2711 -86.5953 308° West 165 190 4,000  Level Chicago Center
08:58PM 40.1279 -86.6112 323° Northwest  Level FlightAware Approximate
08:58PM 40.3047 -86.6508 308° West 165 190 4,000  Level Chicago Center
08:59PM 40.1618 -86.6451 323° Northwest  Level FlightAware Approximate
08:59PM 40.3344 -86.6964 311° West 166 191 4,000  Level Chicago Center
09:00PM 40.1953 -86.6796 320° Northwest  Level FlightAware Approximate
09:00PM 40.3581 -86.7358 308° West 163 188 4,000  Level Chicago Center
09:01PM 40.3867 -86.7847 308° West 166 191 4,000  Level Chicago Center
09:02PM 40.4200 -86.8417 308° West 166 191 4,000  Level Chicago Center
09:03PM 40.4492 -86.8928 307° West 171 197 4,000  Level Chicago Center
09:04PM 40.4789 -86.9375 311° West 165 190 4,000  Level Chicago Center
09:05PM 40.5089 -86.9892 307° West 166 191 4,000  Level Chicago Center
09:06PM 40.5361 -87.0325 310° West 164 189 4,000  Level Chicago Center
09:07PM 40.5681 -87.0806 311° West 163 188 4,000  Level Chicago Center
09:08PM 40.6139 -87.1028 340° North 166 191 4,000  Level Chicago Center
09:09PM 40.6572 -87.1222 341° North 166 191 4,000  Level Chicago Center
09:10PM 40.7000 -87.1439 339° North 165 190 4,000  Level Chicago Center
09:11PM 40.7414 -87.1669 337° Northwest 165 190 4,000  Level Chicago Center
09:12PM 40.7833 -87.1889 338° Northwest 164 189 4,000  Level Chicago Center
09:13PM 40.8317 -87.2147 338° Northwest 160 184 4,000  Level Chicago Center
09:14PM 40.8725 -87.2361 338° Northwest 159 183 4,000  Level Chicago Center
09:15PM 40.9144 -87.2578 339° North 160 184 4,000  Level Chicago Center
09:16PM 40.9550 -87.2794 338° Northwest 160 184 4,000  Level Chicago Center
09:17PM 40.9953 -87.3019 337° Northwest 158 182 4,000  Level Chicago Center
09:18PM 41.0356 -87.3228 339° North 158 182 4,000  Level Chicago Center
09:19PM 41.0856 -87.3481 339° North 159 183 4,000  Level Chicago Center
09:20PM 41.1208 -87.3822 324° Northwest 160 184 4,000  Level Chicago Center
09:21PM 41.1542 -87.4217 318° Northwest 160 184 4,000  Level Chicago Center
09:22PM 41.1894 -87.4556 324° Northwest 159 183 4,000  Level Chicago Center
09:23PM 41.2242 -87.4917 322° Northwest 159 183 4,000  Level Chicago Center
09:24PM 41.2661 -87.5353 322° Northwest 160 184 4,000  Level Chicago Center
09:25PM 41.3011 -87.5692 324° Northwest 158 182 4,000  Level Chicago Center
09:26PM 41.3364 -87.6072 321° Northwest 161 185 4,000  Level Chicago Center
09:27PM 41.3714 -87.6436 322° Northwest 161 185 4,000  Level Chicago Center
09:28PM 41.4078 -87.6811 322° Northwest 164 189 4,000  Level Chicago Center
09:30PM 41.4442 -87.7167 324° Northwest 163 188 4,000 -240 Level Chicago Center
09:31PM 41.4881 -87.7628 322° Northwest 167 192 3,600 -420 Descending Chicago Center
09:32PM 41.5267 -87.8053 321° Northwest 174 200 3,200 -300 Descending Chicago Center
09:33PM 41.5558 -87.8597 306° West 179 206 3,000 -300 Descending Chicago Center
09:34PM 41.5842 -87.9111 306° West 176 203 2,700 -300 Descending Chicago Center
09:35PM 41.6206 -87.9469 324° Northwest 179 206 2,400 -120 Descending Chicago Center
09:36PM 41.6614 -87.9067 36° Northeast 160 184 2,500 -60 Climbing Chicago Center
09:37PM 41.6933 -87.8700 41° Northeast 156 180 2,300 -180 Descending Chicago Center
09:37PM 41.7000 -87.8500 66° East 144 166 2,300 -180 Level Chicago TRACON
09:38PM 41.7333 -87.8167 37° Northeast 121 139 2,100 -420 Descending Chicago TRACON
09:39PM 41.7500 -87.8000 37° Northeast 109 125 1,500 -600 Descending Chicago TRACON
09:40PM 41.7667 -87.7667 56° Northeast 102 117 900 -600 Descending Chicago TRACON